sensor_id;sensor_type;location;lat;lon;timestamp;temperature;humidity
3996;DHT22;2012;49.794;9.722;2023-04-15T00:02:16;6.40;99.90
3996;DHT22;2012;49.794;9.722;2023-04-15T00:04:47;6.50;99.90
3996;DHT22;2012;49.794;9.722;2023-04-15T00:07:14;6.50;99.90
3996;DHT22;2012;49.794;9.722;2023-04-15T00:09:41;6.30;99.90
3996;DHT22;2012;49.794;9.722;2023-04-15T00:12:10;6.20;99.90
3996;DHT22;2012;49.794;9.722;2023-04-15T00:14:38;6.30;99.90
3996;DHT22;2012;49.794;9.722;2023-04-15T00:17:05;6.30;99.90
3996;DHT22;2012;49.794;9.722;2023-04-15T00:19:31;6.30;99.90
3996;DHT22;2012;49.794;9.722;2023-04-15T00:21:59;6.30;99.90
3996;DHT22;2012;49.794;9.722;2023-04-15T00:24:26;6.40;99.90
3996;DHT22;2012;49.794;9.722;2023-04-15T00:26:53;6.30;99.90
3996;DHT22;2012;49.794;9.722;2023-04-15T00:29:20;6.20;99.90
3996;DHT22;2012;49.794;9.722;2023-04-15T00:31:47;6.20;99.90
3996;DHT22;2012;49.794;9.722;2023-04-15T00:34:14;6.20;99.90
3996;DHT22;2012;49.794;9.722;2023-04-15T00:36:42;6.10;99.90
3996;DHT22;2012;49.794;9.722;2023-04-15T00:39:09;6.10;99.90
3996;DHT22;2012;49.794;9.722;2023-04-15T00:41:35;5.90;99.90
3996;DHT22;2012;49.794;9.722;2023-04-15T00:44:05;5.80;99.90
3996;DHT22;2012;49.794;9.722;2023-04-15T00:46:34;5.70;99.90
3996;DHT22;2012;49.794;9.722;2023-04-15T00:49:06;6.00;99.90
3996;DHT22;2012;49.794;9.722;2023-04-15T00:51:33;6.00;99.90
3996;DHT22;2012;49.794;9.722;2023-04-15T00:54:03;6.10;99.90
3996;DHT22;2012;49.794;9.722;2023-04-15T00:56:35;6.00;99.90
3996;DHT22;2012;49.794;9.722;2023-04-15T00:59:07;6.10;99.90
3996;DHT22;2012;49.794;9.722;2023-04-15T01:01:37;6.20;99.90
3996;DHT22;2012;49.794;9.722;2023-04-15T01:04:04;6.30;99.90
3996;DHT22;2012;49.794;9.722;2023-04-15T01:06:33;6.10;99.90
3996;DHT22;2012;49.794;9.722;2023-04-15T01:08:59;6.20;99.90
3996;DHT22;2012;49.794;9.722;2023-04-15T01:11:27;6.20;99.90
3996;DHT22;2012;49.794;9.722;2023-04-15T01:13:55;6.00;99.90
3996;DHT22;2012;49.794;9.722;2023-04-15T01:16:24;5.90;99.90
3996;DHT22;2012;49.794;9.722;2023-04-15T01:18:52;5.80;99.90
3996;DHT22;2012;49.794;9.722;2023-04-15T01:21:19;5.90;99.90
3996;DHT22;2012;49.794;9.722;2023-04-15T01:23:46;5.90;99.90
3996;DHT22;2012;49.794;9.722;2023-04-15T01:26:14;6.10;99.90
3996;DHT22;2012;49.794;9.722;2023-04-15T01:28:41;6.10;99.90
3996;DHT22;2012;49.794;9.722;2023-04-15T01:31:11;6.00;99.90
3996;DHT22;2012;49.794;9.722;2023-04-15T01:33:40;6.10;99.90
3996;DHT22;2012;49.794;9.722;2023-04-15T01:36:08;6.20;99.90
3996;DHT22;2012;49.794;9.722;2023-04-15T01:38:36;6.20;99.90
3996;DHT22;2012;49.794;9.722;2023-04-15T01:41:04;6.20;99.90
3996;DHT22;2012;49.794;9.722;2023-04-15T01:43:36;6.20;99.90
3996;DHT22;2012;49.794;9.722;2023-04-15T01:46:03;6.10;99.90
3996;DHT22;2012;49.794;9.722;2023-04-15T01:48:31;6.20;99.90
3996;DHT22;2012;49.794;9.722;2023-04-15T01:50:58;6.20;99.90
3996;DHT22;2012;49.794;9.722;2023-04-15T01:53:25;6.10;99.90
3996;DHT22;2012;49.794;9.722;2023-04-15T01:55:52;6.10;99.90
3996;DHT22;2012;49.794;9.722;2023-04-15T01:58:19;6.00;99.90
3996;DHT22;2012;49.794;9.722;2023-04-15T02:00:46;6.20;99.90
3996;DHT22;2012;49.794;9.722;2023-04-15T02:03:13;6.10;99.90
3996;DHT22;2012;49.794;9.722;2023-04-15T02:05:39;6.20;99.90
3996;DHT22;2012;49.794;9.722;2023-04-15T02:08:06;6.20;99.90
3996;DHT22;2012;49.794;9.722;2023-04-15T02:10:35;6.20;99.90
3996;DHT22;2012;49.794;9.722;2023-04-15T02:13:04;6.20;99.90
3996;DHT22;2012;49.794;9.722;2023-04-15T02:15:30;6.10;99.90
3996;DHT22;2012;49.794;9.722;2023-04-15T02:17:58;6.20;99.90
3996;DHT22;2012;49.794;9.722;2023-04-15T02:20:26;6.20;99.90
3996;DHT22;2012;49.794;9.722;2023-04-15T02:22:56;6.20;99.90
3996;DHT22;2012;49.794;9.722;2023-04-15T02:25:23;6.20;99.90
3996;DHT22;2012;49.794;9.722;2023-04-15T02:27:49;6.10;99.90
3996;DHT22;2012;49.794;9.722;2023-04-15T02:30:17;6.10;99.90
3996;DHT22;2012;49.794;9.722;2023-04-15T02:32:45;6.10;99.90
3996;DHT22;2012;49.794;9.722;2023-04-15T02:35:12;6.20;99.90
3996;DHT22;2012;49.794;9.722;2023-04-15T02:37:38;6.20;99.90
3996;DHT22;2012;49.794;9.722;2023-04-15T02:40:12;6.10;99.90
3996;DHT22;2012;49.794;9.722;2023-04-15T02:42:39;6.10;99.90
3996;DHT22;2012;49.794;9.722;2023-04-15T02:45:10;6.20;99.90
3996;DHT22;2012;49.794;9.722;2023-04-15T02:47:40;6.20;99.90
3996;DHT22;2012;49.794;9.722;2023-04-15T02:50:08;6.20;99.90
3996;DHT22;2012;49.794;9.722;2023-04-15T02:52:35;6.20;99.90
3996;DHT22;2012;49.794;9.722;2023-04-15T02:55:02;6.10;99.90
3996;DHT22;2012;49.794;9.722;2023-04-15T02:57:29;6.00;99.90
3996;DHT22;2012;49.794;9.722;2023-04-15T03:00:02;5.90;99.90
3996;DHT22;2012;49.794;9.722;2023-04-15T03:02:35;6.00;99.90
3996;DHT22;2012;49.794;9.722;2023-04-15T03:05:03;6.10;99.90
3996;DHT22;2012;49.794;9.722;2023-04-15T03:07:32;6.10;99.90
3996;DHT22;2012;49.794;9.722;2023-04-15T03:10:00;6.10;99.90
3996;DHT22;2012;49.794;9.722;2023-04-15T03:12:28;6.10;99.90
3996;DHT22;2012;49.794;9.722;2023-04-15T03:14:56;6.20;99.90
3996;DHT22;2012;49.794;9.722;2023-04-15T03:17:31;6.10;99.90
3996;DHT22;2012;49.794;9.722;2023-04-15T03:20:00;6.00;99.90
3996;DHT22;2012;49.794;9.722;2023-04-15T03:22:27;6.00;99.90
3996;DHT22;2012;49.794;9.722;2023-04-15T03:24:53;6.00;99.90
3996;DHT22;2012;49.794;9.722;2023-04-15T03:27:20;6.00;99.90
3996;DHT22;2012;49.794;9.722;2023-04-15T03:29:47;6.10;99.90
3996;DHT22;2012;49.794;9.722;2023-04-15T03:32:16;6.10;99.90
3996;DHT22;2012;49.794;9.722;2023-04-15T03:34:43;6.10;99.90
3996;DHT22;2012;49.794;9.722;2023-04-15T03:37:10;6.20;99.90
3996;DHT22;2012;49.794;9.722;2023-04-15T03:39:37;6.20;99.90
3996;DHT22;2012;49.794;9.722;2023-04-15T03:42:04;6.10;99.90
3996;DHT22;2012;49.794;9.722;2023-04-15T03:44:31;6.20;99.90
3996;DHT22;2012;49.794;9.722;2023-04-15T03:46:58;6.20;99.90
3996;DHT22;2012;49.794;9.722;2023-04-15T03:49:25;6.20;99.90
3996;DHT22;2012;49.794;9.722;2023-04-15T03:51:51;6.20;99.90
3996;DHT22;2012;49.794;9.722;2023-04-15T03:54:18;6.20;99.90
3996;DHT22;2012;49.794;9.722;2023-04-15T03:56:45;6.20;99.90
3996;DHT22;2012;49.794;9.722;2023-04-15T03:59:12;6.20;99.90
3996;DHT22;2012;49.794;9.722;2023-04-15T04:01:38;6.10;99.90
3996;DHT22;2012;49.794;9.722;2023-04-15T04:04:05;6.10;99.90
3996;DHT22;2012;49.794;9.722;2023-04-15T04:06:32;6.10;99.90
3996;DHT22;2012;49.794;9.722;2023-04-15T04:08:59;6.10;99.90
3996;DHT22;2012;49.794;9.722;2023-04-15T04:11:27;6.10;99.90
3996;DHT22;2012;49.794;9.722;2023-04-15T04:13:54;6.10;99.90
3996;DHT22;2012;49.794;9.722;2023-04-15T04:16:20;6.10;99.90
3996;DHT22;2012;49.794;9.722;2023-04-15T04:18:47;6.10;99.90
3996;DHT22;2012;49.794;9.722;2023-04-15T04:21:15;6.10;99.90
3996;DHT22;2012;49.794;9.722;2023-04-15T04:23:42;6.10;99.90
3996;DHT22;2012;49.794;9.722;2023-04-15T04:26:09;6.10;99.90
3996;DHT22;2012;49.794;9.722;2023-04-15T04:28:36;6.10;99.90
3996;DHT22;2012;49.794;9.722;2023-04-15T04:31:03;6.10;99.90
3996;DHT22;2012;49.794;9.722;2023-04-15T04:33:30;6.10;99.90
3996;DHT22;2012;49.794;9.722;2023-04-15T04:35:56;6.10;99.90
3996;DHT22;2012;49.794;9.722;2023-04-15T04:38:23;6.10;99.90
3996;DHT22;2012;49.794;9.722;2023-04-15T04:40:50;6.00;99.90
3996;DHT22;2012;49.794;9.722;2023-04-15T04:43:17;6.10;99.90
3996;DHT22;2012;49.794;9.722;2023-04-15T04:45:44;6.10;99.90
3996;DHT22;2012;49.794;9.722;2023-04-15T04:48:11;6.00;99.90
3996;DHT22;2012;49.794;9.722;2023-04-15T04:50:38;6.00;99.90
3996;DHT22;2012;49.794;9.722;2023-04-15T04:53:04;5.80;99.90
3996;DHT22;2012;49.794;9.722;2023-04-15T04:55:31;5.90;99.90
3996;DHT22;2012;49.794;9.722;2023-04-15T04:57:58;6.00;99.90
3996;DHT22;2012;49.794;9.722;2023-04-15T05:00:25;6.00;99.90
3996;DHT22;2012;49.794;9.722;2023-04-15T05:02:52;6.00;99.90
3996;DHT22;2012;49.794;9.722;2023-04-15T05:05:19;6.10;99.90
3996;DHT22;2012;49.794;9.722;2023-04-15T05:07:46;6.10;99.90
3996;DHT22;2012;49.794;9.722;2023-04-15T05:10:14;6.10;99.90
3996;DHT22;2012;49.794;9.722;2023-04-15T05:12:43;6.10;99.90
3996;DHT22;2012;49.794;9.722;2023-04-15T05:15:10;6.00;99.90
3996;DHT22;2012;49.794;9.722;2023-04-15T05:17:37;6.00;99.90
3996;DHT22;2012;49.794;9.722;2023-04-15T05:20:04;6.10;99.90
3996;DHT22;2012;49.794;9.722;2023-04-15T05:22:31;6.10;99.90
3996;DHT22;2012;49.794;9.722;2023-04-15T05:24:58;6.10;99.90
3996;DHT22;2012;49.794;9.722;2023-04-15T05:27:25;6.10;99.90
3996;DHT22;2012;49.794;9.722;2023-04-15T05:29:52;6.10;99.90
3996;DHT22;2012;49.794;9.722;2023-04-15T05:32:18;6.20;99.90
3996;DHT22;2012;49.794;9.722;2023-04-15T05:34:46;6.20;99.90
3996;DHT22;2012;49.794;9.722;2023-04-15T05:37:13;6.30;99.90
3996;DHT22;2012;49.794;9.722;2023-04-15T05:39:40;6.30;99.90
3996;DHT22;2012;49.794;9.722;2023-04-15T05:42:07;6.30;99.90
3996;DHT22;2012;49.794;9.722;2023-04-15T05:44:35;6.30;99.90
3996;DHT22;2012;49.794;9.722;2023-04-15T05:47:01;6.20;99.90
3996;DHT22;2012;49.794;9.722;2023-04-15T05:49:29;6.20;99.90
3996;DHT22;2012;49.794;9.722;2023-04-15T05:51:56;6.40;99.90
3996;DHT22;2012;49.794;9.722;2023-04-15T05:54:23;6.40;99.90
3996;DHT22;2012;49.794;9.722;2023-04-15T05:56:49;6.40;99.90
3996;DHT22;2012;49.794;9.722;2023-04-15T05:59:16;6.50;99.90
3996;DHT22;2012;49.794;9.722;2023-04-15T06:01:43;6.60;99.90
3996;DHT22;2012;49.794;9.722;2023-04-15T06:04:10;6.70;99.90
3996;DHT22;2012;49.794;9.722;2023-04-15T06:06:37;6.80;99.90
3996;DHT22;2012;49.794;9.722;2023-04-15T06:09:04;6.80;99.90
3996;DHT22;2012;49.794;9.722;2023-04-15T06:11:32;6.90;99.90
3996;DHT22;2012;49.794;9.722;2023-04-15T06:13:59;6.90;99.90
3996;DHT22;2012;49.794;9.722;2023-04-15T06:16:26;6.80;99.90
3996;DHT22;2012;49.794;9.722;2023-04-15T06:18:54;6.80;99.90
3996;DHT22;2012;49.794;9.722;2023-04-15T06:21:20;6.80;99.90
3996;DHT22;2012;49.794;9.722;2023-04-15T06:23:47;6.90;99.90
3996;DHT22;2012;49.794;9.722;2023-04-15T06:26:14;7.00;99.90
3996;DHT22;2012;49.794;9.722;2023-04-15T06:28:41;6.90;99.90
3996;DHT22;2012;49.794;9.722;2023-04-15T06:31:08;6.70;99.90
3996;DHT22;2012;49.794;9.722;2023-04-15T06:33:35;6.80;99.90
3996;DHT22;2012;49.794;9.722;2023-04-15T06:36:01;6.80;99.90
3996;DHT22;2012;49.794;9.722;2023-04-15T06:38:28;6.90;99.90
3996;DHT22;2012;49.794;9.722;2023-04-15T06:40:55;6.90;99.90
3996;DHT22;2012;49.794;9.722;2023-04-15T06:43:22;6.90;99.90
3996;DHT22;2012;49.794;9.722;2023-04-15T06:45:48;6.90;99.90
3996;DHT22;2012;49.794;9.722;2023-04-15T06:48:16;6.90;99.90
3996;DHT22;2012;49.794;9.722;2023-04-15T06:50:43;7.00;99.90
3996;DHT22;2012;49.794;9.722;2023-04-15T06:53:10;7.20;99.90
3996;DHT22;2012;49.794;9.722;2023-04-15T06:55:38;7.30;99.90
3996;DHT22;2012;49.794;9.722;2023-04-15T06:58:05;7.40;99.90
3996;DHT22;2012;49.794;9.722;2023-04-15T07:00:32;7.50;99.90
3996;DHT22;2012;49.794;9.722;2023-04-15T07:02:59;7.50;99.90
3996;DHT22;2012;49.794;9.722;2023-04-15T07:05:29;7.60;99.90
3996;DHT22;2012;49.794;9.722;2023-04-15T07:07:56;7.70;99.90
3996;DHT22;2012;49.794;9.722;2023-04-15T07:10:23;7.70;99.90
3996;DHT22;2012;49.794;9.722;2023-04-15T07:12:51;7.70;99.90
3996;DHT22;2012;49.794;9.722;2023-04-15T07:15:18;7.80;99.90
3996;DHT22;2012;49.794;9.722;2023-04-15T07:17:45;7.60;99.90
3996;DHT22;2012;49.794;9.722;2023-04-15T07:20:12;7.60;99.90
3996;DHT22;2012;49.794;9.722;2023-04-15T07:22:39;7.90;99.90
3996;DHT22;2012;49.794;9.722;2023-04-15T07:25:06;8.10;99.90
3996;DHT22;2012;49.794;9.722;2023-04-15T07:27:34;7.90;99.90
3996;DHT22;2012;49.794;9.722;2023-04-15T07:30:01;7.80;99.90
3996;DHT22;2012;49.794;9.722;2023-04-15T07:32:28;7.90;99.90
3996;DHT22;2012;49.794;9.722;2023-04-15T07:34:55;8.10;99.90
3996;DHT22;2012;49.794;9.722;2023-04-15T07:37:22;8.20;99.90
3996;DHT22;2012;49.794;9.722;2023-04-15T07:39:49;8.30;99.90
3996;DHT22;2012;49.794;9.722;2023-04-15T07:42:16;8.40;99.90
3996;DHT22;2012;49.794;9.722;2023-04-15T07:44:42;8.50;99.90
3996;DHT22;2012;49.794;9.722;2023-04-15T07:47:09;8.60;99.90
3996;DHT22;2012;49.794;9.722;2023-04-15T07:49:36;8.50;99.90
3996;DHT22;2012;49.794;9.722;2023-04-15T07:52:03;8.50;99.90
3996;DHT22;2012;49.794;9.722;2023-04-15T07:54:30;8.60;99.90
3996;DHT22;2012;49.794;9.722;2023-04-15T07:56:57;8.60;99.90
3996;DHT22;2012;49.794;9.722;2023-04-15T07:59:24;8.70;99.90
3996;DHT22;2012;49.794;9.722;2023-04-15T08:01:53;8.80;99.90
3996;DHT22;2012;49.794;9.722;2023-04-15T08:04:20;8.80;99.90
3996;DHT22;2012;49.794;9.722;2023-04-15T08:06:47;8.80;99.90
3996;DHT22;2012;49.794;9.722;2023-04-15T08:09:15;8.90;99.90
3996;DHT22;2012;49.794;9.722;2023-04-15T08:11:44;9.00;99.90
3996;DHT22;2012;49.794;9.722;2023-04-15T08:14:11;9.10;99.90
3996;DHT22;2012;49.794;9.722;2023-04-15T08:16:38;9.20;99.90
3996;DHT22;2012;49.794;9.722;2023-04-15T08:19:04;9.30;99.90
3996;DHT22;2012;49.794;9.722;2023-04-15T08:21:31;9.30;99.90
3996;DHT22;2012;49.794;9.722;2023-04-15T08:23:58;9.50;99.90
3996;DHT22;2012;49.794;9.722;2023-04-15T08:26:26;9.60;99.90
3996;DHT22;2012;49.794;9.722;2023-04-15T08:28:52;9.80;99.90
3996;DHT22;2012;49.794;9.722;2023-04-15T08:31:19;9.80;99.90
3996;DHT22;2012;49.794;9.722;2023-04-15T08:33:46;9.90;99.90
3996;DHT22;2012;49.794;9.722;2023-04-15T08:36:13;10.00;99.90
3996;DHT22;2012;49.794;9.722;2023-04-15T08:38:40;10.00;99.90
3996;DHT22;2012;49.794;9.722;2023-04-15T08:41:17;10.00;99.90
3996;DHT22;2012;49.794;9.722;2023-04-15T08:43:57;10.00;99.90
3996;DHT22;2012;49.794;9.722;2023-04-15T08:46:26;10.00;99.90
3996;DHT22;2012;49.794;9.722;2023-04-15T08:48:56;10.10;99.90
3996;DHT22;2012;49.794;9.722;2023-04-15T08:51:24;10.20;99.90
3996;DHT22;2012;49.794;9.722;2023-04-15T08:53:51;11.10;99.90
3996;DHT22;2012;49.794;9.722;2023-04-15T08:56:18;12.00;99.90
3996;DHT22;2012;49.794;9.722;2023-04-15T08:58:46;12.20;99.90
3996;DHT22;2012;49.794;9.722;2023-04-15T09:01:14;12.40;99.90
3996;DHT22;2012;49.794;9.722;2023-04-15T09:03:41;12.30;99.90
3996;DHT22;2012;49.794;9.722;2023-04-15T09:06:10;12.10;99.90
3996;DHT22;2012;49.794;9.722;2023-04-15T09:08:37;12.30;99.90
3996;DHT22;2012;49.794;9.722;2023-04-15T09:11:04;12.50;99.90
3996;DHT22;2012;49.794;9.722;2023-04-15T09:13:31;12.50;99.90
3996;DHT22;2012;49.794;9.722;2023-04-15T09:16:00;12.40;99.90
3996;DHT22;2012;49.794;9.722;2023-04-15T09:18:31;12.50;99.90
3996;DHT22;2012;49.794;9.722;2023-04-15T09:21:13;12.80;99.90
3996;DHT22;2012;49.794;9.722;2023-04-15T09:23:56;12.50;99.90
3996;DHT22;2012;49.794;9.722;2023-04-15T09:26:32;12.80;99.90
3996;DHT22;2012;49.794;9.722;2023-04-15T09:29:06;13.10;99.90
3996;DHT22;2012;49.794;9.722;2023-04-15T09:31:33;12.70;99.90
3996;DHT22;2012;49.794;9.722;2023-04-15T09:34:00;12.70;99.90
3996;DHT22;2012;49.794;9.722;2023-04-15T09:36:28;13.30;99.90
3996;DHT22;2012;49.794;9.722;2023-04-15T09:38:59;13.30;99.90
3996;DHT22;2012;49.794;9.722;2023-04-15T09:41:26;13.30;99.90
3996;DHT22;2012;49.794;9.722;2023-04-15T09:43:54;13.20;99.90
3996;DHT22;2012;49.794;9.722;2023-04-15T09:46:43;13.00;99.90
3996;DHT22;2012;49.794;9.722;2023-04-15T09:49:11;12.90;99.90
3996;DHT22;2012;49.794;9.722;2023-04-15T09:51:38;12.20;99.90
3996;DHT22;2012;49.794;9.722;2023-04-15T09:54:05;11.50;99.90
3996;DHT22;2012;49.794;9.722;2023-04-15T09:56:38;11.10;99.90
3996;DHT22;2012;49.794;9.722;2023-04-15T09:59:08;11.00;99.90
3996;DHT22;2012;49.794;9.722;2023-04-15T10:01:35;11.00;99.90
3996;DHT22;2012;49.794;9.722;2023-04-15T10:04:03;11.00;99.90
3996;DHT22;2012;49.794;9.722;2023-04-15T10:06:31;11.10;99.90
3996;DHT22;2012;49.794;9.722;2023-04-15T10:08:58;11.20;99.90
3996;DHT22;2012;49.794;9.722;2023-04-15T10:11:28;11.30;99.90
3996;DHT22;2012;49.794;9.722;2023-04-15T10:13:57;11.30;99.90
3996;DHT22;2012;49.794;9.722;2023-04-15T10:16:26;11.40;99.90
3996;DHT22;2012;49.794;9.722;2023-04-15T10:18:55;11.30;99.90
3996;DHT22;2012;49.794;9.722;2023-04-15T10:21:22;11.30;99.90
3996;DHT22;2012;49.794;9.722;2023-04-15T10:23:49;11.20;99.90
3996;DHT22;2012;49.794;9.722;2023-04-15T10:26:17;11.30;99.90
3996;DHT22;2012;49.794;9.722;2023-04-15T10:28:44;11.10;99.90
3996;DHT22;2012;49.794;9.722;2023-04-15T10:31:14;11.10;99.90
3996;DHT22;2012;49.794;9.722;2023-04-15T10:33:43;11.10;99.90
3996;DHT22;2012;49.794;9.722;2023-04-15T10:36:11;11.10;99.90
3996;DHT22;2012;49.794;9.722;2023-04-15T10:38:43;11.00;99.90
3996;DHT22;2012;49.794;9.722;2023-04-15T10:41:18;10.90;99.90
3996;DHT22;2012;49.794;9.722;2023-04-15T10:43:52;10.70;99.90
3996;DHT22;2012;49.794;9.722;2023-04-15T10:46:33;10.70;99.90
3996;DHT22;2012;49.794;9.722;2023-04-15T10:49:24;10.80;99.90
3996;DHT22;2012;49.794;9.722;2023-04-15T10:51:56;10.80;99.90
3996;DHT22;2012;49.794;9.722;2023-04-15T10:56:51;10.90;99.90
3996;DHT22;2012;49.794;9.722;2023-04-15T10:59:18;10.80;99.90
3996;DHT22;2012;49.794;9.722;2023-04-15T11:01:55;10.80;99.90
3996;DHT22;2012;49.794;9.722;2023-04-15T11:04:57;10.80;99.90
3996;DHT22;2012;49.794;9.722;2023-04-15T11:12:40;10.80;99.90
3996;DHT22;2012;49.794;9.722;2023-04-15T11:15:35;10.90;99.90
3996;DHT22;2012;49.794;9.722;2023-04-15T11:18:09;10.90;99.90
3996;DHT22;2012;49.794;9.722;2023-04-15T11:20:38;10.90;99.90
3996;DHT22;2012;49.794;9.722;2023-04-15T11:23:06;10.90;99.90
3996;DHT22;2012;49.794;9.722;2023-04-15T11:25:42;10.80;99.90
3996;DHT22;2012;49.794;9.722;2023-04-15T11:28:11;10.90;99.90
3996;DHT22;2012;49.794;9.722;2023-04-15T11:30:38;10.70;99.90
3996;DHT22;2012;49.794;9.722;2023-04-15T11:33:08;10.60;99.90
3996;DHT22;2012;49.794;9.722;2023-04-15T11:35:35;10.60;99.90
3996;DHT22;2012;49.794;9.722;2023-04-15T11:38:03;10.50;99.90
3996;DHT22;2012;49.794;9.722;2023-04-15T11:40:31;10.50;99.90
3996;DHT22;2012;49.794;9.722;2023-04-15T11:43:07;10.40;99.90
3996;DHT22;2012;49.794;9.722;2023-04-15T11:45:35;10.30;99.90
3996;DHT22;2012;49.794;9.722;2023-04-15T11:48:10;10.30;99.90
3996;DHT22;2012;49.794;9.722;2023-04-15T11:50:38;10.40;99.90
3996;DHT22;2012;49.794;9.722;2023-04-15T11:53:08;10.50;99.90
3996;DHT22;2012;49.794;9.722;2023-04-15T11:55:42;10.50;99.90
3996;DHT22;2012;49.794;9.722;2023-04-15T12:01:00;10.60;99.90
3996;DHT22;2012;49.794;9.722;2023-04-15T12:03:35;10.60;99.90
3996;DHT22;2012;49.794;9.722;2023-04-15T12:06:15;10.70;99.90
3996;DHT22;2012;49.794;9.722;2023-04-15T12:11:42;10.70;99.90
3996;DHT22;2012;49.794;9.722;2023-04-15T12:16:47;10.70;99.90
3996;DHT22;2012;49.794;9.722;2023-04-15T12:19:29;10.80;99.90
3996;DHT22;2012;49.794;9.722;2023-04-15T12:22:02;10.70;99.90
3996;DHT22;2012;49.794;9.722;2023-04-15T12:24:33;10.70;99.90
3996;DHT22;2012;49.794;9.722;2023-04-15T12:27:08;10.70;99.90
3996;DHT22;2012;49.794;9.722;2023-04-15T12:29:37;10.70;99.90
3996;DHT22;2012;49.794;9.722;2023-04-15T12:32:15;10.70;99.90
3996;DHT22;2012;49.794;9.722;2023-04-15T12:34:48;10.70;99.90
3996;DHT22;2012;49.794;9.722;2023-04-15T12:37:15;10.80;99.90
3996;DHT22;2012;49.794;9.722;2023-04-15T12:39:47;10.70;99.90
3996;DHT22;2012;49.794;9.722;2023-04-15T12:42:17;10.70;99.90
3996;DHT22;2012;49.794;9.722;2023-04-15T12:44:45;10.70;99.90
3996;DHT22;2012;49.794;9.722;2023-04-15T12:47:12;10.60;99.90
3996;DHT22;2012;49.794;9.722;2023-04-15T12:49:39;10.60;99.90
3996;DHT22;2012;49.794;9.722;2023-04-15T12:52:06;10.50;99.90
3996;DHT22;2012;49.794;9.722;2023-04-15T12:54:33;10.40;99.90
3996;DHT22;2012;49.794;9.722;2023-04-15T12:57:01;10.40;99.90
3996;DHT22;2012;49.794;9.722;2023-04-15T12:59:32;10.40;99.90
3996;DHT22;2012;49.794;9.722;2023-04-15T13:01:59;10.40;99.90
3996;DHT22;2012;49.794;9.722;2023-04-15T13:04:28;10.40;99.90
3996;DHT22;2012;49.794;9.722;2023-04-15T13:06:57;10.30;99.90
3996;DHT22;2012;49.794;9.722;2023-04-15T13:09:23;10.30;99.90
3996;DHT22;2012;49.794;9.722;2023-04-15T13:11:50;10.00;99.90
3996;DHT22;2012;49.794;9.722;2023-04-15T13:14:18;10.10;99.90
3996;DHT22;2012;49.794;9.722;2023-04-15T13:16:45;10.10;99.90
3996;DHT22;2012;49.794;9.722;2023-04-15T13:19:12;10.10;99.90
3996;DHT22;2012;49.794;9.722;2023-04-15T13:21:39;10.00;99.90
3996;DHT22;2012;49.794;9.722;2023-04-15T13:24:06;10.10;99.90
3996;DHT22;2012;49.794;9.722;2023-04-15T13:26:33;10.20;99.90
3996;DHT22;2012;49.794;9.722;2023-04-15T13:29:02;10.10;99.90
3996;DHT22;2012;49.794;9.722;2023-04-15T13:31:29;10.20;99.90
3996;DHT22;2012;49.794;9.722;2023-04-15T13:33:56;10.20;99.90
3996;DHT22;2012;49.794;9.722;2023-04-15T13:36:23;10.20;99.90
3996;DHT22;2012;49.794;9.722;2023-04-15T13:38:50;10.20;99.90
3996;DHT22;2012;49.794;9.722;2023-04-15T13:41:17;10.20;99.90
3996;DHT22;2012;49.794;9.722;2023-04-15T13:43:45;10.20;99.90
3996;DHT22;2012;49.794;9.722;2023-04-15T13:46:12;10.20;99.90
3996;DHT22;2012;49.794;9.722;2023-04-15T13:48:39;10.10;99.90
3996;DHT22;2012;49.794;9.722;2023-04-15T13:51:06;10.10;99.90
3996;DHT22;2012;49.794;9.722;2023-04-15T13:53:33;10.10;99.90
3996;DHT22;2012;49.794;9.722;2023-04-15T13:56:08;9.90;99.90
3996;DHT22;2012;49.794;9.722;2023-04-15T13:58:36;9.90;99.90
3996;DHT22;2012;49.794;9.722;2023-04-15T14:01:04;10.00;99.90
3996;DHT22;2012;49.794;9.722;2023-04-15T14:03:33;9.90;99.90
3996;DHT22;2012;49.794;9.722;2023-04-15T14:06:02;9.80;99.90
3996;DHT22;2012;49.794;9.722;2023-04-15T14:08:29;9.80;99.90
3996;DHT22;2012;49.794;9.722;2023-04-15T14:10:55;9.80;99.90
3996;DHT22;2012;49.794;9.722;2023-04-15T14:13:23;9.80;99.90
3996;DHT22;2012;49.794;9.722;2023-04-15T14:15:50;9.80;99.90
3996;DHT22;2012;49.794;9.722;2023-04-15T14:18:17;9.80;99.90
3996;DHT22;2012;49.794;9.722;2023-04-15T14:20:43;9.90;99.90
3996;DHT22;2012;49.794;9.722;2023-04-15T14:23:10;9.90;99.90
3996;DHT22;2012;49.794;9.722;2023-04-15T14:25:37;9.90;99.90
3996;DHT22;2012;49.794;9.722;2023-04-15T14:28:05;9.90;99.90
3996;DHT22;2012;49.794;9.722;2023-04-15T14:30:32;9.90;99.90
3996;DHT22;2012;49.794;9.722;2023-04-15T14:32:59;9.90;99.90
3996;DHT22;2012;49.794;9.722;2023-04-15T14:35:26;9.80;99.90
3996;DHT22;2012;49.794;9.722;2023-04-15T14:37:53;9.80;99.90
3996;DHT22;2012;49.794;9.722;2023-04-15T14:40:21;9.80;99.90
3996;DHT22;2012;49.794;9.722;2023-04-15T14:42:48;9.90;99.90
3996;DHT22;2012;49.794;9.722;2023-04-15T14:45:15;9.80;99.90
3996;DHT22;2012;49.794;9.722;2023-04-15T14:47:42;9.90;99.90
3996;DHT22;2012;49.794;9.722;2023-04-15T14:50:09;9.80;99.90
3996;DHT22;2012;49.794;9.722;2023-04-15T14:52:36;9.80;99.90
3996;DHT22;2012;49.794;9.722;2023-04-15T14:55:07;9.80;99.90
3996;DHT22;2012;49.794;9.722;2023-04-15T14:57:40;9.70;99.90
3996;DHT22;2012;49.794;9.722;2023-04-15T15:00:09;9.80;99.90
3996;DHT22;2012;49.794;9.722;2023-04-15T15:02:38;9.80;99.90
3996;DHT22;2012;49.794;9.722;2023-04-15T15:05:08;9.80;99.90
3996;DHT22;2012;49.794;9.722;2023-04-15T15:07:36;9.90;99.90
3996;DHT22;2012;49.794;9.722;2023-04-15T15:10:04;9.90;99.90
3996;DHT22;2012;49.794;9.722;2023-04-15T15:12:32;9.90;99.90
3996;DHT22;2012;49.794;9.722;2023-04-15T15:14:59;9.90;99.90
3996;DHT22;2012;49.794;9.722;2023-04-15T15:17:30;9.90;99.90
3996;DHT22;2012;49.794;9.722;2023-04-15T15:19:57;9.80;99.90
3996;DHT22;2012;49.794;9.722;2023-04-15T15:22:24;9.80;99.90
3996;DHT22;2012;49.794;9.722;2023-04-15T15:24:52;9.80;99.90
3996;DHT22;2012;49.794;9.722;2023-04-15T15:27:19;9.90;99.90
3996;DHT22;2012;49.794;9.722;2023-04-15T15:29:46;9.80;99.90
3996;DHT22;2012;49.794;9.722;2023-04-15T15:32:13;9.80;99.90
3996;DHT22;2012;49.794;9.722;2023-04-15T15:34:39;9.80;99.90
3996;DHT22;2012;49.794;9.722;2023-04-15T15:37:06;9.70;99.90
3996;DHT22;2012;49.794;9.722;2023-04-15T15:39:34;9.70;99.90
3996;DHT22;2012;49.794;9.722;2023-04-15T15:42:01;9.70;99.90
3996;DHT22;2012;49.794;9.722;2023-04-15T15:44:27;9.80;99.90
3996;DHT22;2012;49.794;9.722;2023-04-15T15:46:54;9.80;99.90
3996;DHT22;2012;49.794;9.722;2023-04-15T15:49:21;9.80;99.90
3996;DHT22;2012;49.794;9.722;2023-04-15T15:51:48;9.80;99.90
3996;DHT22;2012;49.794;9.722;2023-04-15T15:54:15;9.80;99.90
3996;DHT22;2012;49.794;9.722;2023-04-15T15:56:42;9.80;99.90
3996;DHT22;2012;49.794;9.722;2023-04-15T15:59:09;9.60;99.90
3996;DHT22;2012;49.794;9.722;2023-04-15T16:01:36;9.70;99.90
3996;DHT22;2012;49.794;9.722;2023-04-15T16:04:02;9.70;99.90
3996;DHT22;2012;49.794;9.722;2023-04-15T16:06:29;9.70;99.90
3996;DHT22;2012;49.794;9.722;2023-04-15T16:09:00;9.60;99.90
3996;DHT22;2012;49.794;9.722;2023-04-15T16:11:28;9.60;99.90
3996;DHT22;2012;49.794;9.722;2023-04-15T16:13:55;9.70;99.90
3996;DHT22;2012;49.794;9.722;2023-04-15T16:16:21;9.70;99.90
3996;DHT22;2012;49.794;9.722;2023-04-15T16:18:49;9.70;99.90
3996;DHT22;2012;49.794;9.722;2023-04-15T16:21:16;9.70;99.90
3996;DHT22;2012;49.794;9.722;2023-04-15T16:23:43;9.70;99.90
3996;DHT22;2012;49.794;9.722;2023-04-15T16:26:10;9.70;99.90
3996;DHT22;2012;49.794;9.722;2023-04-15T16:28:37;9.70;99.90
3996;DHT22;2012;49.794;9.722;2023-04-15T16:31:03;9.70;99.90
3996;DHT22;2012;49.794;9.722;2023-04-15T16:33:31;9.70;99.90
3996;DHT22;2012;49.794;9.722;2023-04-15T16:35:58;9.70;99.90